createdAt,value
2022-10-22T00:01:01.628Z,8.27
2022-10-22T00:03:30.815Z,7.50
2022-10-22T00:05:57.790Z,7.80
2022-10-22T00:08:24.426Z,8.20
2022-10-22T00:10:53.746Z,7.78
2022-10-22T00:13:20.950Z,8.45
2022-10-22T00:15:50.664Z,8.23
2022-10-22T00:18:19.094Z,8.27
2022-10-22T00:20:45.818Z,8.30
2022-10-22T00:23:12.421Z,8.30
2022-10-22T00:25:41.734Z,7.65
2022-10-22T00:28:10.346Z,8.18
2022-10-22T00:30:38.942Z,7.93
2022-10-22T00:33:05.664Z,8.30
2022-10-22T00:35:33.035Z,7.68
2022-10-22T00:38:00.558Z,8.82
2022-10-22T00:40:37.774Z,8.82
2022-10-22T00:43:07.892Z,7.10
2022-10-22T00:45:39.229Z,8.43
2022-10-22T00:48:15.005Z,7.70
2022-10-22T00:50:44.415Z,7.30
2022-10-22T00:53:22.295Z,6.82
2022-10-22T00:55:54.277Z,7.53
2022-10-22T00:58:31.299Z,6.95
2022-10-22T01:00:58.635Z,7.75
2022-10-22T01:03:26.146Z,7.28
2022-10-22T01:06:00.903Z,7.57
2022-10-22T01:08:46.827Z,6.72
2022-10-22T01:11:51.201Z,7.88
2022-10-22T01:14:17.943Z,7.43
2022-10-22T01:17:09.899Z,7.72
2022-10-22T01:20:10.664Z,7.20
2022-10-22T01:23:05.460Z,7.53
2022-10-22T01:25:46.430Z,6.70
2022-10-22T01:28:27.929Z,6.57
2022-10-22T01:30:58.224Z,7.32
2022-10-22T01:33:28.364Z,6.40
2022-10-22T01:35:56.279Z,7.82
2022-10-22T01:38:25.146Z,6.75
2022-10-22T01:41:01.612Z,7.00
2022-10-22T01:43:32.834Z,7.68
2022-10-22T01:46:04.789Z,6.65
2022-10-22T01:48:54.802Z,7.15
2022-10-22T01:51:27.518Z,7.22
2022-10-22T01:53:57.865Z,6.60
2022-10-22T01:56:31.529Z,6.82
2022-10-22T01:59:08.361Z,7.10
2022-10-22T02:02:05.086Z,7.30
2022-10-22T02:04:48.710Z,6.88
2022-10-22T02:07:19.762Z,7.35
2022-10-22T02:09:47.886Z,6.68
2022-10-22T02:12:17.069Z,7.35
2022-10-22T02:14:49.457Z,6.97
2022-10-22T02:17:20.221Z,7.03
2022-10-22T02:20:03.693Z,7.15
2022-10-22T02:22:30.910Z,7.75
2022-10-22T02:24:57.779Z,8.13
2022-10-22T02:27:39.093Z,6.90
2022-10-22T02:30:12.375Z,7.80
2022-10-22T02:33:02.120Z,7.75
2022-10-22T02:35:36.216Z,6.97
2022-10-22T02:38:04.474Z,6.57
2022-10-22T02:40:31.905Z,6.90
2022-10-22T02:42:58.822Z,6.63
2022-10-22T02:45:27.764Z,6.55
2022-10-22T02:47:54.431Z,6.60
2022-10-22T02:50:21.376Z,6.35
2022-10-22T02:52:48.307Z,6.22
2022-10-22T02:55:15.133Z,6.03
2022-10-22T02:57:42.443Z,5.22
2022-10-22T03:00:11.500Z,6.03
2022-10-22T03:02:38.848Z,4.97
2022-10-22T03:05:10.253Z,5.75
2022-10-22T03:07:38.247Z,5.50
2022-10-22T03:10:05.933Z,6.00
2022-10-22T03:12:33.792Z,4.70
2022-10-22T03:15:00.598Z,6.25
2022-10-22T03:17:27.708Z,6.18
2022-10-22T03:19:54.373Z,4.97
2022-10-22T03:22:27.259Z,5.63
2022-10-22T03:24:58.495Z,5.43
2022-10-22T03:27:28.520Z,6.05
2022-10-22T03:29:57.405Z,6.10
2022-10-22T03:32:24.130Z,5.90
2022-10-22T03:34:57.488Z,6.10
2022-10-22T03:37:28.960Z,6.22
2022-10-22T03:39:55.998Z,5.70
2022-10-22T03:42:25.141Z,5.28
2022-10-22T03:44:53.011Z,6.40
2022-10-22T03:47:19.664Z,5.82
2022-10-22T03:49:46.340Z,5.40
2022-10-22T03:52:14.818Z,5.70
2022-10-22T03:54:42.696Z,5.90
2022-10-22T03:57:10.318Z,5.13
2022-10-22T03:59:43.079Z,5.22
2022-10-22T04:02:13.599Z,5.63
2022-10-22T04:04:40.714Z,5.45
2022-10-22T04:07:12.104Z,5.70
2022-10-22T04:09:41.859Z,5.53
2022-10-22T04:12:09.939Z,5.18
2022-10-22T04:14:36.784Z,5.50
2022-10-22T04:17:03.718Z,5.55
2022-10-22T04:19:33.603Z,5.07
2022-10-22T04:22:01.074Z,5.28
2022-10-22T04:24:27.770Z,4.95
2022-10-22T04:26:55.225Z,5.05
2022-10-22T04:29:31.494Z,5.80
2022-10-22T04:31:58.157Z,5.13
2022-10-22T04:34:27.843Z,5.80
2022-10-22T04:36:54.455Z,5.07
2022-10-22T04:39:21.166Z,4.60
2022-10-22T04:41:47.800Z,4.82
2022-10-22T04:44:17.205Z,5.18
2022-10-22T04:46:50.644Z,4.90
2022-10-22T04:49:17.329Z,4.88
2022-10-22T04:51:44.098Z,5.55
2022-10-22T04:54:10.951Z,4.70
2022-10-22T04:56:37.873Z,5.32
2022-10-22T04:59:07.446Z,5.70
2022-10-22T05:01:40.075Z,5.82
2022-10-22T05:04:13.967Z,5.72
2022-10-22T05:06:40.683Z,5.35
2022-10-22T05:09:12.148Z,4.95
2022-10-22T05:14:10.181Z,5.93
2022-10-22T05:16:38.175Z,5.65
2022-10-22T05:19:05.940Z,5.22
2022-10-22T05:21:33.262Z,5.45
2022-10-22T05:24:00.420Z,5.82
2022-10-22T05:26:28.591Z,5.22
2022-10-22T05:28:55.654Z,5.90
2022-10-22T05:31:22.447Z,5.40
2022-10-22T05:33:49.152Z,5.82
2022-10-22T05:36:18.591Z,5.78
2022-10-22T05:38:45.579Z,5.40
2022-10-22T05:41:27.854Z,5.60
2022-10-22T05:43:57.182Z,5.32
2022-10-22T05:46:26.020Z,5.22
2022-10-22T05:49:04.316Z,5.68
2022-10-22T05:51:33.443Z,5.88
2022-10-22T05:54:06.820Z,4.70
2022-10-22T05:56:34.113Z,5.38
2022-10-22T06:01:38.016Z,6.00
2022-10-22T06:04:07.331Z,5.53
2022-10-22T06:06:50.243Z,5.65
2022-10-22T06:09:19.526Z,5.53
2022-10-22T06:11:48.503Z,5.47
2022-10-22T06:14:15.134Z,5.25
2022-10-22T06:16:42.062Z,5.30
2022-10-22T06:19:12.702Z,6.45
2022-10-22T06:21:40.838Z,5.70
2022-10-22T06:24:08.155Z,5.75
2022-10-22T06:26:35.022Z,6.03
2022-10-22T06:29:02.220Z,6.00
2022-10-22T06:31:29.521Z,5.22
2022-10-22T06:34:02.373Z,5.47
2022-10-22T06:36:30.664Z,5.57
2022-10-22T06:38:57.739Z,5.60
2022-10-22T06:41:28.539Z,5.95
2022-10-22T06:44:01.278Z,6.38
2022-10-22T06:48:57.963Z,6.38
2022-10-22T06:51:27.298Z,6.03
2022-10-22T06:53:55.561Z,5.50
2022-10-22T06:56:25.476Z,5.78
2022-10-22T06:58:54.386Z,6.53
2022-10-22T07:01:24.136Z,5.68
2022-10-22T07:03:52.124Z,6.30
2022-10-22T07:06:19.432Z,6.00
2022-10-22T07:08:48.094Z,5.53
2022-10-22T07:11:22.613Z,6.25
2022-10-22T07:13:53.055Z,5.97
2022-10-22T07:16:19.922Z,5.20
2022-10-22T07:18:49.984Z,4.85
2022-10-22T07:21:20.746Z,5.50
2022-10-22T07:23:50.150Z,5.53
2022-10-22T07:26:18.164Z,5.05
2022-10-22T07:28:44.970Z,5.35
2022-10-22T07:31:17.244Z,5.30
2022-10-22T07:33:46.376Z,5.57
2022-10-22T07:36:22.090Z,5.15
2022-10-22T07:38:53.882Z,4.65
2022-10-22T07:41:20.801Z,5.05
2022-10-22T07:43:50.875Z,4.45
2022-10-22T07:46:17.738Z,4.30
2022-10-22T07:48:51.825Z,4.88
2022-10-22T07:51:19.236Z,4.75
2022-10-22T07:53:49.184Z,4.70
2022-10-22T07:56:18.826Z,5.20
2022-10-22T07:58:45.673Z,6.25
2022-10-22T08:01:12.542Z,5.57
2022-10-22T08:03:42.815Z,5.82
2022-10-22T08:06:13.048Z,4.85
2022-10-22T08:08:40.082Z,5.85
2022-10-22T08:11:06.968Z,5.28
2022-10-22T08:13:33.635Z,5.63
2022-10-22T08:16:01.132Z,5.13
2022-10-22T08:18:29.222Z,5.13
2022-10-22T08:20:56.238Z,4.90
2022-10-22T08:23:28.567Z,6.07
2022-10-22T08:25:57.902Z,5.93
2022-10-22T08:28:29.699Z,5.60
2022-10-22T08:30:57.294Z,5.65
2022-10-22T08:33:24.318Z,5.07
2022-10-22T08:35:53.429Z,5.63
2022-10-22T08:38:21.337Z,4.95
2022-10-22T08:41:03.685Z,5.22
2022-10-22T08:44:03.162Z,5.78
2022-10-22T08:47:40.962Z,5.97
2022-10-22T08:50:12.406Z,5.38
2022-10-22T08:55:14.681Z,5.53
2022-10-22T08:58:10.746Z,5.18
2022-10-22T09:00:56.438Z,6.00
2022-10-22T09:03:43.159Z,6.88
2022-10-22T09:06:36.465Z,6.45
2022-10-22T09:09:15.888Z,6.45
2022-10-22T09:11:56.775Z,6.00
2022-10-22T09:14:26.191Z,6.50
2022-10-22T09:17:20.905Z,6.32
2022-10-22T09:20:23.847Z,6.30
2022-10-22T09:23:01.165Z,7.07
2022-10-22T09:25:31.169Z,8.05
2022-10-22T09:28:00.675Z,7.10
2022-10-22T09:30:30.188Z,7.15
2022-10-22T09:33:06.174Z,7.68
2022-10-22T09:35:50.974Z,7.55
2022-10-22T09:38:20.788Z,7.32
2022-10-22T09:40:58.722Z,8.20
2022-10-22T09:43:28.068Z,7.80
2022-10-22T09:46:00.807Z,7.57
2022-10-22T09:48:34.744Z,7.50
2022-10-22T09:51:21.520Z,7.57
2022-10-22T09:53:57.235Z,8.05
2022-10-22T09:56:37.676Z,9.13
2022-10-22T09:59:15.429Z,7.28
2022-10-22T10:01:45.869Z,7.85
2022-10-22T10:04:14.984Z,8.25
2022-10-22T10:06:44.733Z,7.72
2022-10-22T10:09:22.834Z,7.55
2022-10-22T10:12:15.724Z,8.57
2022-10-22T10:14:54.521Z,7.80
2022-10-22T10:18:02.766Z,6.90
2022-10-22T10:21:04.861Z,7.22
2022-10-22T10:23:42.072Z,8.23
2022-10-22T10:26:23.384Z,7.47
2022-10-22T10:29:10.881Z,6.72
2022-10-22T10:31:54.470Z,7.70
2022-10-22T10:34:46.623Z,8.55
2022-10-22T10:37:16.448Z,7.60
2022-10-22T10:39:45.923Z,7.93
2022-10-22T10:42:36.164Z,7.10
2022-10-22T10:45:36.508Z,8.70
2022-10-22T10:48:31.406Z,7.53
2022-10-22T10:51:10.198Z,7.40
2022-10-22T10:53:57.907Z,8.50
2022-10-22T10:56:34.394Z,7.40
2022-10-22T10:59:29.432Z,7.22
2022-10-22T11:02:30.834Z,8.15
2022-10-22T11:05:14.472Z,6.80
2022-10-22T11:07:52.130Z,7.47
2022-10-22T11:10:37.183Z,7.25
2022-10-22T11:13:19.815Z,6.80
2022-10-22T11:16:00.880Z,7.32
2022-10-22T11:18:37.869Z,8.48
2022-10-22T11:21:36.185Z,7.03
2022-10-22T11:24:21.893Z,7.75
2022-10-22T11:26:58.721Z,6.78
2022-10-22T11:29:34.509Z,6.55
2022-10-22T11:32:03.923Z,6.85
2022-10-22T11:34:48.834Z,6.75
2022-10-22T11:37:16.932Z,6.50
2022-10-22T11:39:56.951Z,7.25
2022-10-22T11:42:34.400Z,7.00
2022-10-22T11:45:02.626Z,6.65
2022-10-22T11:47:51.659Z,6.65
2022-10-22T11:50:26.175Z,6.45
2022-10-22T11:53:27.973Z,6.20
2022-10-22T11:58:39.535Z,8.55
2022-10-22T12:01:12.875Z,7.00
2022-10-22T12:03:59.596Z,7.10
2022-10-22T12:06:55.136Z,6.75
2022-10-22T12:09:30.417Z,6.15
2022-10-22T12:12:04.783Z,6.95
2022-10-22T12:14:51.480Z,6.63
2022-10-22T12:17:20.972Z,6.80
2022-10-22T12:20:14.958Z,6.93
2022-10-22T12:22:43.453Z,6.97
2022-10-22T12:25:20.152Z,7.60
2022-10-22T12:27:53.381Z,6.78
2022-10-22T12:30:23.901Z,6.78
2022-10-22T12:33:01.796Z,9.13
2022-10-22T12:35:33.562Z,8.13
2022-10-22T12:38:15.600Z,7.28
2022-10-22T12:40:45.971Z,8.77
2022-10-22T12:43:18.512Z,8.65
2022-10-22T12:45:47.442Z,8.63
2022-10-22T12:48:23.794Z,7.80
2022-10-22T12:51:05.264Z,8.13
2022-10-22T12:56:23.181Z,7.40
2022-10-22T12:59:00.676Z,7.15
2022-10-22T13:01:38.157Z,8.95
2022-10-22T13:04:36.983Z,6.47
2022-10-22T13:07:18.437Z,7.95
2022-10-22T13:09:59.382Z,6.82
2022-10-22T13:12:27.901Z,7.18
2022-10-22T13:15:19.160Z,6.45
2022-10-22T13:17:54.782Z,6.88
2022-10-22T13:20:23.562Z,6.65
2022-10-22T13:23:04.174Z,5.30
2022-10-22T13:25:33.503Z,6.57
2022-10-22T13:28:20.050Z,6.03
2022-10-22T13:31:13.177Z,6.20
2022-10-22T13:33:43.804Z,6.68
2022-10-22T13:36:14.956Z,7.13
2022-10-22T13:38:43.089Z,5.80
2022-10-22T13:41:36.691Z,6.45
2022-10-22T13:44:03.379Z,7.05
2022-10-22T13:46:33.155Z,7.78
2022-10-22T13:49:00.727Z,5.93
2022-10-22T13:51:37.872Z,6.63
2022-10-22T13:54:14.018Z,7.15
2022-10-22T13:56:41.043Z,8.05
2022-10-22T13:59:42.877Z,8.20
2022-10-22T14:05:48.522Z,6.22
2022-10-22T14:08:32.225Z,5.53
2022-10-22T14:22:24.139Z,7.63
2022-10-22T14:24:52.028Z,8.65
2022-10-22T14:27:18.696Z,9.80
2022-10-22T14:29:46.591Z,9.77
2022-10-22T14:32:21.650Z,11.80
2022-10-22T14:34:48.859Z,10.75
2022-10-22T14:37:21.463Z,11.52
2022-10-22T14:39:52.500Z,11.75
2022-10-22T14:42:25.716Z,11.32
2022-10-22T14:44:52.484Z,11.43
2022-10-22T14:47:22.093Z,11.90
2022-10-22T14:49:51.692Z,11.15
2022-10-22T14:52:20.308Z,11.00
2022-10-22T14:54:50.382Z,12.85
2022-10-22T14:57:17.136Z,12.05
2022-10-22T14:59:47.059Z,12.38
2022-10-22T15:02:14.019Z,11.95
2022-10-22T15:04:41.370Z,11.20
2022-10-22T15:07:08.167Z,11.63
2022-10-22T15:09:34.957Z,11.07
2022-10-22T15:12:01.666Z,11.20
2022-10-22T15:14:28.320Z,12.60
2022-10-22T15:16:54.968Z,11.55
2022-10-22T15:19:21.726Z,12.65
2022-10-22T15:21:53.683Z,14.32
2022-10-22T15:24:20.390Z,15.43
2022-10-22T15:26:47.300Z,15.43
2022-10-22T15:29:16.627Z,15.48
2022-10-22T15:31:44.386Z,15.30
2022-10-22T15:34:11.460Z,16.13
2022-10-22T15:36:38.290Z,16.15
2022-10-22T15:39:12.713Z,14.73
2022-10-22T15:41:39.943Z,13.32
2022-10-22T15:44:08.672Z,13.50
2022-10-22T15:46:36.063Z,13.38
2022-10-22T15:49:02.953Z,12.13
2022-10-22T15:51:29.698Z,11.88
2022-10-22T15:53:59.081Z,13.20
2022-10-22T15:56:28.860Z,11.43
2022-10-22T15:59:04.149Z,11.85
2022-10-22T16:01:34.181Z,11.93
2022-10-22T16:04:04.690Z,11.52
2022-10-22T16:06:56.565Z,11.93
2022-10-22T16:09:28.926Z,11.32
2022-10-22T16:11:56.105Z,12.00
2022-10-22T16:14:24.282Z,13.20
2022-10-22T16:16:59.526Z,12.40
2022-10-22T16:19:26.323Z,12.32
2022-10-22T16:22:06.635Z,13.82
2022-10-22T16:24:33.493Z,13.43
2022-10-22T16:27:00.303Z,13.00
2022-10-22T16:29:27.374Z,13.60
2022-10-22T16:32:01.135Z,11.40
2022-10-22T16:34:28.448Z,12.55
2022-10-22T16:36:57.255Z,12.63
2022-10-22T16:39:23.990Z,13.50
2022-10-22T16:41:50.580Z,14.13
2022-10-22T16:44:17.233Z,14.32
2022-10-22T16:46:44.210Z,13.20
2022-10-22T16:49:11.136Z,13.18
2022-10-22T16:51:38.172Z,13.73
2022-10-22T16:54:08.175Z,13.27
2022-10-22T16:56:38.158Z,14.48
2022-10-22T16:59:04.849Z,14.13
2022-10-22T17:01:33.222Z,13.57
2022-10-22T17:04:01.925Z,13.55
2022-10-22T17:06:28.714Z,13.68
2022-10-22T17:08:57.214Z,14.23
2022-10-22T17:11:25.232Z,13.30
2022-10-22T17:13:54.222Z,14.63
2022-10-22T17:16:27.803Z,14.20
2022-10-22T17:18:55.818Z,14.10
2022-10-22T17:21:23.785Z,13.75
2022-10-22T17:23:56.815Z,15.18
2022-10-22T17:26:26.912Z,14.38
2022-10-22T17:28:56.834Z,14.25
2022-10-22T17:31:38.747Z,14.23
2022-10-22T17:34:08.288Z,14.23
2022-10-22T17:36:37.566Z,15.68
2022-10-22T17:39:07.300Z,16.63
2022-10-22T17:41:36.630Z,15.30
2022-10-22T17:44:10.952Z,15.27
2022-10-22T17:46:46.826Z,17.10
2022-10-22T17:49:17.614Z,15.38
2022-10-22T17:51:44.622Z,15.55
2022-10-22T17:54:12.494Z,16.80
2022-10-22T17:56:40.268Z,16.90
2022-10-22T17:59:08.323Z,16.75
2022-10-22T18:01:39.535Z,16.55
2022-10-22T18:04:08.536Z,17.10
2022-10-22T18:06:36.185Z,17.65
2022-10-22T18:09:14.440Z,17.88
2022-10-22T18:11:44.392Z,16.25
2022-10-22T18:14:14.071Z,16.42
2022-10-22T18:16:40.945Z,15.13
2022-10-22T18:19:09.803Z,16.70
2022-10-22T18:21:37.077Z,15.70
2022-10-22T18:24:07.020Z,17.08
2022-10-22T18:26:35.040Z,15.98
2022-10-22T18:29:01.910Z,15.98
2022-10-22T18:31:30.321Z,14.73
2022-10-22T18:33:57.691Z,15.70
2022-10-22T18:36:26.476Z,14.95
2022-10-22T18:39:04.229Z,15.27
2022-10-22T18:41:33.570Z,15.95
2022-10-22T18:44:15.191Z,15.13
2022-10-22T18:49:18.577Z,16.17
2022-10-22T18:51:49.118Z,14.68
2022-10-22T18:54:23.269Z,17.00
2022-10-22T18:56:50.933Z,15.48
2022-10-22T18:59:23.840Z,15.60
2022-10-22T19:01:54.983Z,16.50
2022-10-22T19:04:22.087Z,16.13
2022-10-22T19:06:53.707Z,16.15
2022-10-22T19:09:22.830Z,16.08
2022-10-22T19:11:49.696Z,16.15
2022-10-22T19:14:30.260Z,16.95
2022-10-22T19:16:57.107Z,16.58
2022-10-22T19:19:24.668Z,17.42
2022-10-22T19:21:51.723Z,17.15
2022-10-22T19:24:24.688Z,17.55
2022-10-22T19:26:51.769Z,17.48
2022-10-22T19:29:20.907Z,17.60
2022-10-22T19:31:48.196Z,17.13
2022-10-22T19:34:14.814Z,17.40
2022-10-22T19:36:41.746Z,16.50
2022-10-22T19:39:15.754Z,18.60
2022-10-22T19:41:44.839Z,18.35
2022-10-22T19:44:12.996Z,18.52
2022-10-22T19:46:40.222Z,18.63
2022-10-22T19:49:10.674Z,17.85
2022-10-22T19:51:41.061Z,19.25
2022-10-22T19:54:12.713Z,17.58
2022-10-22T19:56:45.336Z,17.52
2022-10-22T19:59:12.322Z,19.05
2022-10-22T20:01:39.129Z,17.02
2022-10-22T20:04:06.329Z,18.50
2022-10-22T20:06:33.096Z,17.83
2022-10-22T20:09:02.915Z,17.50
2022-10-22T20:11:30.717Z,18.25
2022-10-22T20:13:59.012Z,17.80
2022-10-22T20:16:30.004Z,18.15
2022-10-22T20:19:01.828Z,18.33
2022-10-22T20:21:29.117Z,18.20
2022-10-22T20:23:57.705Z,18.25
2022-10-22T20:26:28.122Z,18.35
2022-10-22T20:28:56.417Z,19.13
2022-10-22T20:31:25.261Z,18.58
2022-10-22T20:33:52.108Z,19.27
2022-10-22T20:36:23.794Z,17.30
2022-10-22T20:38:51.603Z,18.38
2022-10-22T20:41:24.889Z,18.05
2022-10-22T20:43:52.432Z,17.27
2022-10-22T20:46:25.760Z,18.67
2022-10-22T20:48:56.287Z,19.17
2022-10-22T20:51:23.061Z,18.33
2022-10-22T20:53:52.880Z,17.52
2022-10-22T20:56:23.355Z,17.95
2022-10-22T20:58:54.069Z,18.80
2022-10-22T21:01:24.345Z,17.73
2022-10-22T21:03:54.399Z,18.83
2022-10-22T21:06:23.328Z,18.63
2022-10-22T21:08:52.065Z,16.95
2022-10-22T21:11:23.456Z,18.77
2022-10-22T21:13:51.808Z,18.17
2022-10-22T21:16:19.605Z,18.88
2022-10-22T21:18:47.226Z,17.38
2022-10-22T21:21:19.545Z,19.40
2022-10-22T21:23:46.951Z,17.83
2022-10-22T21:26:13.693Z,17.20
2022-10-22T21:28:43.093Z,18.80
2022-10-22T21:31:11.297Z,18.60
2022-10-22T21:33:42.379Z,19.23
2022-10-22T21:36:09.640Z,19.13
2022-10-22T21:38:38.050Z,19.35
2022-10-22T21:41:06.866Z,18.98
2022-10-22T21:43:34.018Z,18.13
2022-10-22T21:46:08.665Z,20.17
2022-10-22T21:48:39.696Z,20.45
2022-10-22T21:51:13.511Z,19.17
2022-10-22T21:53:40.492Z,18.73
2022-10-22T21:56:08.357Z,19.50
2022-10-22T21:58:36.368Z,20.05
2022-10-22T22:01:06.217Z,19.48
2022-10-22T22:03:34.760Z,19.55
2022-10-22T22:06:05.269Z,18.63
2022-10-22T22:08:34.863Z,18.45
2022-10-22T22:11:30.931Z,19.15
2022-10-22T22:13:59.820Z,17.73
2022-10-22T22:16:35.180Z,18.95
2022-10-22T22:21:32.273Z,18.48
2022-10-22T22:23:59.580Z,18.20
2022-10-22T22:26:31.641Z,17.10
2022-10-22T22:28:59.776Z,19.48
2022-10-22T22:31:32.389Z,19.00
2022-10-22T22:34:14.170Z,18.00
2022-10-22T22:39:15.477Z,17.40
2022-10-22T22:41:43.159Z,16.02
2022-10-22T22:44:10.291Z,19.55
2022-10-22T22:46:37.431Z,16.30
2022-10-22T22:49:04.888Z,16.17
2022-10-22T22:51:32.782Z,16.88
2022-10-22T22:54:03.400Z,16.88
2022-10-22T22:56:32.621Z,15.18
2022-10-22T22:59:02.046Z,15.45
2022-10-22T23:01:48.893Z,14.27
2022-10-22T23:04:25.360Z,14.57
2022-10-22T23:06:53.112Z,15.80
2022-10-22T23:11:47.382Z,14.93
2022-10-22T23:14:18.177Z,16.23
2022-10-22T23:16:47.981Z,16.40
2022-10-22T23:19:17.775Z,15.55
2022-10-22T23:21:53.483Z,16.90
2022-10-22T23:24:25.446Z,16.77
2022-10-22T23:26:54.200Z,15.80
2022-10-22T23:29:28.788Z,15.43
2022-10-22T23:31:55.955Z,15.13
2022-10-22T23:34:27.751Z,16.15
2022-10-22T23:36:57.648Z,15.65
2022-10-22T23:39:27.542Z,15.90
2022-10-22T23:41:55.347Z,15.68
2022-10-22T23:44:23.179Z,14.60
2022-10-22T23:46:50.479Z,16.08
2022-10-22T23:49:18.006Z,16.48
2022-10-22T23:51:44.716Z,15.90
2022-10-22T23:54:17.685Z,14.70
2022-10-22T23:56:44.431Z,16.15
2022-10-22T23:59:11.231Z,15.25
